Data for 09/18/2010

Time Sea-Level Adjusted Pressure Absolute Pressure Temperature Relative Humidity Dew Point   
(mb) (inHg) (mb) (inHg) (C) (F) (%) (C) (F)
00:05 1021 30.15 850 25.1 2.3 36.1 84 -0.1 31.8
00:10 1021 30.15 850 25.1 2.3 36.2 84 -0.1 31.9
00:15 1021 30.15 850 25.1 2.4 36.3 84 0 32
00:20 1021 30.15 850 25.1 2.3 36.2 85 0 32.1
00:25 1021 30.15 850 25.1 2.3 36.1 85 0 32
00:30 1021 30.15 850 25.1 2.3 36.1 85 0.1 32.2
00:35 1021 30.15 850 25.1 2.3 36.1 86 0.1 32.2
00:40 1021 30.15 850 25.1 2.2 36 87 0.2 32.4
00:45 1021 30.15 850 25.1 2.2 35.9 86 0 32.1
00:50 1021 30.15 850 25.1 2.2 36 86 0.1 32.1
00:55 1021 30.15 850 25.1 2.2 36 86 0.1 32.2
01:00 1021 30.15 850 25.1 2.2 35.9 86 0.1 32.1
01:05 1021 30.15 850 25.1 2.2 36 84 -0.2 31.7
01:10 1021 30.15 850 25.1 2.3 36.2 83 -0.2 31.6
01:15 1021 30.15 850 25.1 2.4 36.3 84 -0.1 31.8
01:20 1021 30.15 850 25.1 2.4 36.3 84 -0.1 31.8
01:25 1021 30.15 850 25.1 2.4 36.4 84 -0.1 31.9
01:30 1021 30.15 850 25.1 2.4 36.4 83 -0.2 31.6
01:35 1021 30.15 850 25.1 2.5 36.5 83 -0.1 31.7
01:40 1021 30.15 850 25.1 2.4 36.4 83 -0.2 31.6
01:45 1021 30.15 850 25.1 2.4 36.3 83 -0.2 31.7
01:50 1021 30.15 850 25.1 2.3 36.2 84 -0.2 31.7
01:55 1021 30.15 850 25.1 2.3 36.2 83 -0.3 31.5
02:00 1021 30.15 850 25.1 2.4 36.3 83 -0.3 31.5
02:05 1021 30.15 850 25.1 2.5 36.4 82 -0.3 31.5
02:10 1021 30.15 850 25.1 2.5 36.6 81 -0.3 31.4
02:15 1021 30.15 850 25.1 2.6 36.6 81 -0.3 31.4
02:20 1021 30.15 850 25.1 2.5 36.6 82 -0.2 31.6
02:25 1021 30.15 850 25.1 2.5 36.6 82 -0.2 31.6
02:30 1021 30.15 850 25.1 2.5 36.5 82 -0.2 31.6
02:35 1021 30.15 850 25.1 2.5 36.5 82 -0.2 31.6
02:40 1021 30.15 850 25.1 2.5 36.5 83 -0.1 31.7
02:45 1021 30.15 850 25.1 2.4 36.4 83 -0.1 31.8
02:50 1021 30.15 850 25.1 2.4 36.3 84 -0.1 31.8
02:55 1021 30.15 850 25.1 2.4 36.4 83 -0.1 31.8
03:00 1021 30.15 850 25.1 2.4 36.4 83 -0.1 31.8
03:05 1021 30.15 850 25.1 2.4 36.3 84 -0.1 31.9
03:10 1021 30.15 850 25.1 2.4 36.3 84 -0 31.9
03:15 1021 30.15 850 25.1 2.4 36.3 84 -0 32
03:20 1021 30.15 850 25.1 2.4 36.3 84 0 32
03:25 1021 30.15 850 25.1 2.5 36.5 83 -0 31.9
03:30 1021 30.15 850 25.1 2.5 36.5 83 -0 32
03:35 1021 30.15 850 25.1 2.5 36.4 84 0 32
03:40 1021 30.15 850 25.1 2.4 36.3 84 -0 32
03:45 1021 30.15 850 25.1 2.3 36.2 85 -0 32
03:50 1021 30.15 850 25.1 2.2 36 85 -0 32
03:55 1021 30.15 850 25.1 2.2 36 85 -0.1 31.9
04:00 1021 30.15 850 25.1 2.2 35.9 85 -0 31.9
04:05 1020 30.12 850 25.1 2.1 35.8 86 -0 31.9
04:10 1020 30.12 849 25.07 2.2 35.9 85 -0.1 31.9
04:15 1020 30.12 849 25.07 2.1 35.8 85 -0.2 31.7
04:20 1021 30.15 850 25.1 2.1 35.8 85 -0.2 31.7
04:25 1021 30.15 850 25.1 2.1 35.7 85 -0.2 31.6
04:30 1020 30.12 849 25.07 2 35.6 86 -0.1 31.8
04:35 1020 30.12 850 25.1 2 35.6 85 -0.2 31.7
04:40 1020 30.12 850 25.1 2.1 35.8 84 -0.3 31.5
04:45 1020 30.12 850 25.1 2.1 35.8 84 -0.3 31.4
04:50 1020 30.12 850 25.1 2.2 35.9 84 -0.2 31.6
04:55 1020 30.12 850 25.1 2.1 35.8 85 -0.2 31.7
05:00 1021 30.15 850 25.1 2.1 35.7 85 -0.2 31.6
05:05 1021 30.15 850 25.1 2.1 35.8 84 -0.3 31.4
05:10 1021 30.15 850 25.1 2.2 35.9 84 -0.2 31.6
05:15 1021 30.15 850 25.1 2.2 36 83 -0.3 31.5
05:20 1021 30.15 850 25.1 2.3 36.2 84 -0.2 31.7
05:25 1020 30.12 850 25.1 2.3 36.1 84 -0.2 31.6
05:30 1021 30.15 850 25.1 2.3 36.1 83 -0.3 31.5
05:35 1020 30.12 850 25.1 2.1 35.9 84 -0.2 31.6
05:40 1021 30.15 850 25.1 2 35.7 84 -0.3 31.4
05:45 1021 30.15 850 25.1 2.1 35.7 84 -0.3 31.4
05:50 1020 30.12 850 25.1 2.1 35.9 84 -0.4 31.4
05:55 1021 30.15 850 25.1 2.2 36 83 -0.4 31.3
06:00 1021 30.15 850 25.1 2.3 36.1 83 -0.4 31.3
06:05 1020 30.12 849 25.07 2.3 36.2 82 -0.4 31.3
06:10 1021 30.15 850 25.1 2.3 36.1 83 -0.3 31.5
06:15 1020 30.12 850 25.1 2.2 36 84 -0.3 31.5
06:20 1020 30.12 849 25.07 2.1 35.8 84 -0.3 31.5
06:25 1021 30.15 850 25.1 2.1 35.7 85 -0.3 31.5
06:30 1021 30.15 850 25.1 2.1 35.7 84 -0.3 31.5
06:35 1021 30.15 851 25.13 2.2 36 84 -0.1 31.7
06:40 1021 30.15 850 25.1 2.3 36.1 84 -0.1 31.8
06:45 1021 30.15 851 25.13 2.4 36.3 84 -0.1 31.8
06:50 1021 30.15 850 25.1 2.6 36.6 83 0 32.1
06:55 1021 30.15 850 25.1 2.7 36.9 84 0.3 32.5
07:00 1021 30.15 850 25.1 2.7 36.9 84 0.3 32.5
07:05 1021 30.15 850 25.1 2.6 36.7 84 0.3 32.5
07:10 1020 30.12 850 25.1 2.5 36.6 85 0.2 32.4
07:15 1020 30.12 849 25.07 2.5 36.4 85 0.2 32.4
07:20 1020 30.12 849 25.07 2.3 36.2 87 0.4 32.6
07:25 1020 30.12 850 25.1 2.5 36.4 86 0.4 32.7
07:30 1020 30.12 850 25.1 2.5 36.4 86 0.4 32.8
07:35 1020 30.12 849 25.07 2.3 36.2 85 0 32
07:40 1019 30.09 849 25.07 2.3 36.2 84 -0.1 31.8
07:45 1020 30.12 849 25.07 2.4 36.3 84 -0.1 31.8
07:50 1020 30.12 849 25.07 2.6 36.7 83 -0 32
07:55 1020 30.12 849 25.07 2.8 37.1 82 0.1 32.1
08:00 1020 30.12 849 25.07 3 37.4 82 0.2 32.4
08:05 1020 30.12 849 25.07 3.1 37.6 81 0.2 32.3
08:10 1020 30.12 849 25.07 3.2 37.8 81 0.3 32.5
08:15 1020 30.12 849 25.07 3.6 38.4 79 0.3 32.6
08:20 1020 30.12 849 25.07 4 39.1 80 0.8 33.4
08:25 1020 30.12 849 25.07 4.4 39.9 85 2 35.7
08:30 1020 30.12 849 25.07 4.3 39.8 86 2.1 35.8
08:35 1020 30.12 849 25.07 4.2 39.6 85 2 35.6
08:40 1020 30.12 850 25.1 4.6 40.2 83 2 35.6
08:45 1020 30.12 850 25.1 5.1 41.3 80 2 35.5
08:50 1020 30.12 850 25.1 5.5 42 80 2.3 36.1
08:55 1020 30.12 850 25.1 5.9 42.6 78 2.3 36.1
09:00 1020 30.12 850 25.1 6.4 43.4 74 2.1 35.8
09:05 1020 30.12 850 25.1 6.6 43.8 70 1.4 34.5
09:10 1020 30.12 850 25.1 6.3 43.3 70 1.2 34.1
09:15 1020 30.12 850 25.1 6.3 43.4 79 3 37.3
09:20 1020 30.12 850 25.1 6 42.7 78 2.4 36.4
09:25 1020 30.12 850 25.1 6.6 43.9 77 2.8 37.1
09:30 1020 30.12 849 25.07 6.5 43.8 71 1.7 35.1
09:35 1020 30.12 849 25.07 7.4 45.2 71 2.5 36.5
09:40 1020 30.12 849 25.07 6.9 44.4 69 1.7 35
09:45 1020 30.12 849 25.07 6.5 43.6 71 1.5 34.7
09:50 1020 30.12 849 25.07 7 44.7 69 1.8 35.2
09:55 1020 30.12 849 25.07 6.8 44.3 70 1.7 35.1
10:00 1020 30.12 849 25.07 6.8 44.2 70 1.7 35
10:05 1020 30.12 849 25.07 7.3 45.1 67 1.6 34.9
10:10 1020 30.12 849 25.07 7.6 45.6 67 1.9 35.5
10:15 1020 30.12 849 25.07 8.2 46.8 66 2.4 36.2
10:20 1020 30.12 849 25.07 8.2 46.8 67 2.5 36.4
10:25 1020 30.12 849 25.07 8.1 46.5 67 2.3 36.2
10:30 1020 30.12 849 25.07 7.9 46.3 69 2.7 36.8
10:35 1020 30.12 849 25.07 7.6 45.7 71 2.7 36.8
10:40 1020 30.12 849 25.07 7.5 45.5 71 2.6 36.6
10:45 1020 30.12 849 25.07 7.4 45.2 72 2.6 36.8
10:50 1020 30.12 849 25.07 7.4 45.3 71 2.6 36.7
10:55 1020 30.12 849 25.07 7.9 46.3 68 2.5 36.5
11:00 1020 30.12 849 25.07 7.9 46.3 69 2.6 36.8
11:05 1020 30.12 849 25.07 8.2 46.7 68 2.6 36.6
11:10 1020 30.12 849 25.07 8.4 47.1 66 2.5 36.5
11:15 1020 30.12 849 25.07 8.5 47.4 67 2.8 37
11:20 1020 30.12 849 25.07 8.5 47.4 66 2.5 36.5
11:25 1020 30.12 849 25.07 9 48.2 65 2.9 37.2
11:30 1020 30.12 849 25.07 10 49.9 63 3.3 37.9
11:35 1020 30.12 849 25.07 9.8 49.7 62 2.9 37.3
11:40 1020 30.12 849 25.07 10.7 51.2 59 3 37.4
11:45 1020 30.12 849 25.07 11.3 52.3 60 3.8 38.8
11:50 1020 30.12 849 25.07 10.7 51.3 63 4.1 39.4
11:55 1020 30.12 849 25.07 10.7 51.2 61 3.6 38.5
12:00 1020 30.12 849 25.07 10.2 50.4 66 4.2 39.6
12:05 1020 30.12 849 25.07 10 49.9 69 4.6 40.2
12:10 1020 30.12 849 25.07 9.5 49 70 4.3 39.7
12:15 1020 30.12 849 25.07 9.9 49.9 67 4.1 39.3
12:20 1020 30.12 849 25.07 9.7 49.5 68 4.1 39.3
12:25 1020 30.12 849 25.07 9.5 49.2 69 4.1 39.5
12:30 1020 30.12 849 25.07 9.2 48.6 71 4.2 39.6
12:35 1020 30.12 849 25.07 9.5 49.1 68 4 39.1
12:40 1020 30.12 849 25.07 10.7 51.2 66 4.5 40.1
12:45 1020 30.12 849 25.07 10.4 50.6 68 4.7 40.4
12:50 1020 30.12 849 25.07 10.1 50.2 68 4.6 40.2
12:55 1020 30.12 849 25.07 10.6 51.1 65 4.4 39.9
13:00 1020 30.12 849 25.07 11.1 52.1 60 3.8 38.9
13:05 1020 30.12 849 25.07 11.5 52.7 63 4.7 40.4
13:10 1020 30.12 849 25.07 11.1 52 65 4.9 40.9
13:15 1019 30.09 849 25.07 11.1 52 62 4.2 39.6
13:20 1019 30.09 849 25.07 12.2 54 60 4.7 40.5
13:25 1019 30.09 849 25.07 12 53.6 58 4.2 39.5
13:30 1019 30.09 849 25.07 12.1 53.7 61 4.9 40.7
13:35 1019 30.09 849 25.07 12.7 54.8 58 4.6 40.4
13:40 1019 30.09 849 25.07 12.8 55 59 5 41
13:45 1019 30.09 849 25.07 12.8 55 57 4.5 40.1
13:50 1019 30.09 848 25.04 13.2 55.7 58 5.1 41.2
13:55 1019 30.09 848 25.04 13.7 56.7 55 4.8 40.7
14:00 1019 30.09 848 25.04 14.1 57.4 53 4.8 40.6
14:05 1019 30.09 848 25.04 14.2 57.5 54 5.1 41.3
14:10 1019 30.09 848 25.04 14.3 57.7 55 5.5 41.9
14:15 1019 30.09 848 25.04 14.2 57.6 53 5 41
14:20 1019 30.09 848 25.04 14 57.1 54 4.9 40.9
14:25 1019 30.09 848 25.04 14 57.3 57 5.6 42.2
14:30 1019 30.09 848 25.04 13.6 56.5 54 4.6 40.2
14:35 1018 30.06 848 25.04 14.7 58.4 53 5.3 41.5
14:40 1018 30.06 848 25.04 14.4 57.8 57 6.1 43
14:45 1018 30.06 847 25.01 14.2 57.5 54 5.2 41.3
14:50 1018 30.06 847 25.01 14.3 57.7 55 5.5 42
14:55 1018 30.06 847 25.01 14.5 58 57 6.2 43.1
15:00 1018 30.06 847 25.01 13.8 56.9 58 5.7 42.2
15:05 1018 30.06 847 25.01 14.1 57.4 57 5.8 42.4
15:10 1018 30.06 847 25.01 13.5 56.4 60 5.9 42.7
15:15 1018 30.06 847 25.01 13.3 55.9 60 5.8 42.4
15:20 1018 30.06 847 25.01 14.1 57.5 56 5.6 42.1
15:25 1018 30.06 847 25.01 15.4 59.8 53 5.9 42.6
15:30 1018 30.06 847 25.01 15.6 60.1 53 6.2 43.1
15:35 1018 30.06 847 25.01 15.7 60.3 52 5.9 42.6
15:40 1018 30.06 847 25.01 16 60.7 57 7.5 45.5
15:45 1018 30.06 847 25.01 15 59.1 56 6.5 43.7
15:50 1018 30.06 847 25.01 15.1 59.2 56 6.6 43.9
15:55 1018 30.06 847 25.01 14.6 58.2 57 6.2 43.1
16:00 1018 30.06 847 25.01 15.5 59.9 54 6.4 43.5
16:05 1018 30.06 847 25.01 15.1 59.1 60 7.5 45.5
16:10 1018 30.06 847 25.01 14.4 57.8 61 7 44.6
16:15 1018 30.06 847 25.01 13.8 56.9 62 6.8 44.2
16:20 1018 30.06 847 25.01 13.9 57.1 62 6.8 44.2
16:25 1018 30.06 847 25.01 15 59 57 6.7 44
16:30 1018 30.06 847 25.01 14.7 58.4 59 6.7 44.1
16:35 1017 30.03 847 25.01 15.7 60.2 55 6.8 44.2
16:40 1018 30.06 847 25.01 16.3 61.3 54 6.9 44.5
16:45 1017 30.03 847 25.01 16.2 61.1 55 7.3 45.2
16:50 1017 30.03 847 25.01 15.9 60.5 56 7.2 45
16:55 1017 30.03 847 25.01 15.8 60.4 57 7.3 45.2
17:00 1017 30.03 846 24.98 15.5 59.8 57 7.1 44.8
17:05 1017 30.03 846 24.98 15.4 59.6 57 7.1 44.8
17:10 1017 30.03 846 24.98 15.3 59.5 58 7.2 44.9
17:15 1017 30.03 846 24.98 15.6 60.1 58 7.4 45.3
17:20 1017 30.03 846 24.98 15.8 60.4 58 7.6 45.6
17:25 1017 30.03 846 24.98 15.5 59.9 60 7.7 45.9
17:30 1017 30.03 846 24.98 15.2 59.3 61 7.7 45.9
17:35 1017 30.03 846 24.98 14.6 58.3 64 7.9 46.2
17:40 1017 30.03 846 24.98 14.5 58.1 64 7.8 46
17:45 1017 30.03 847 25.01 15 58.9 61 7.6 45.7
17:50 1017 30.03 847 25.01 15.1 59.2 60 7.6 45.6
17:55 1018 30.06 847 25.01 15.1 59.1 61 7.7 45.9
18:00 1018 30.06 847 25.01 15 58.9 61 7.6 45.7
18:05 1018 30.06 847 25.01 14.8 58.6 62 7.6 45.7
18:10 1018 30.06 847 25.01 14.3 57.8 64 7.6 45.7
18:15 1018 30.06 847 25.01 14.1 57.4 65 7.8 46
18:20 1018 30.06 847 25.01 13.7 56.7 65 7.3 45.1
18:25 1018 30.06 847 25.01 13.4 56.1 66 7.2 44.9
18:30 1018 30.06 847 25.01 13.1 55.6 67 7.2 44.9
18:35 1018 30.06 847 25.01 12.9 55.2 67 7 44.5
18:40 1018 30.06 847 25.01 13.2 55.7 67 7.1 44.9
18:45 1017 30.03 847 25.01 13.1 55.6 67 7.2 45
18:50 1017 30.03 847 25.01 12.8 55 69 7.4 45.3
18:55 1018 30.06 847 25.01 12.6 54.7 70 7.3 45.2
19:00 1017 30.03 847 25.01 12.6 54.6 70 7.4 45.2
19:05 1017 30.03 847 25.01 12.5 54.5 71 7.5 45.5
19:10 1017 30.03 847 25.01 12.5 54.5 72 7.6 45.6
19:15 1017 30.03 847 25.01 12.5 54.4 72 7.5 45.5
19:20 1018 30.06 847 25.01 12.5 54.6 71 7.4 45.4
19:25 1017 30.03 847 25.01 12.6 54.6 71 7.5 45.5
19:30 1017 30.03 847 25.01 12.5 54.5 72 7.6 45.7
19:35 1017 30.03 846 24.98 12.5 54.5 72 7.7 45.8
19:40 1017 30.03 846 24.98 12.7 54.9 71 7.7 45.9
19:45 1017 30.03 847 25.01 12.8 55.1 72 7.9 46.2
19:50 1017 30.03 847 25.01 12.8 55.1 73 8.2 46.8
19:55 1017 30.03 847 25.01 12.7 54.8 74 8.2 46.8
20:00 1017 30.03 847 25.01 12.6 54.6 75 8.3 47
20:05 1018 30.06 847 25.01 12.4 54.4 76 8.3 47
20:10 1018 30.06 847 25.01 12.3 54.2 77 8.4 47
20:15 1017 30.03 847 25.01 12 53.7 79 8.5 47.2
20:20 1018 30.06 847 25.01 11.8 53.2 79 8.3 46.9
20:25 1018 30.06 847 25.01 11.6 52.9 79 8.2 46.7
20:30 1018 30.06 847 25.01 11.8 53.3 78 8.1 46.6
20:35 1018 30.06 847 25.01 12 53.6 77 8.2 46.8
20:40 1018 30.06 847 25.01 12 53.7 78 8.3 46.9
20:45 1018 30.06 847 25.01 12 53.6 78 8.3 46.9
20:50 1018 30.06 847 25.01 12 53.6 77 8.2 46.7
20:55 1018 30.06 847 25.01 12.1 53.7 77 8.1 46.6
21:00 1018 30.06 847 25.01 12 53.7 76 8 46.3
21:05 1018 30.06 847 25.01 12.1 53.7 77 8.2 46.7
21:10 1018 30.06 847 25.01 12 53.6 78 8.4 47
21:15 1018 30.06 847 25.01 12 53.6 78 8.3 46.9
21:20 1018 30.06 848 25.04 12 53.6 78 8.2 46.8
21:25 1018 30.06 848 25.04 12 53.5 78 8.2 46.8
21:30 1018 30.06 848 25.04 11.8 53.3 78 8.1 46.6
21:35 1018 30.06 848 25.04 11.7 53 78 8.1 46.6
21:40 1018 30.06 848 25.04 11.6 52.8 79 8 46.4
21:45 1018 30.06 848 25.04 11.4 52.5 79 7.9 46.2
21:50 1018 30.06 848 25.04 11.3 52.3 79 7.7 45.8
21:55 1018 30.06 848 25.04 11.3 52.3 78 7.6 45.7
22:00 1018 30.06 848 25.04 11.3 52.3 78 7.6 45.6
22:05 1019 30.09 848 25.04 11.2 52.2 78 7.5 45.6
22:10 1018 30.06 848 25.04 10.9 51.6 81 7.7 45.9
22:15 1018 30.06 848 25.04 10.3 50.5 83 7.6 45.7
22:20 1019 30.09 848 25.04 10.2 50.3 83 7.4 45.3
22:25 1018 30.06 848 25.04 10.3 50.5 83 7.6 45.6
22:30 1019 30.09 848 25.04 10.2 50.4 84 7.7 45.8
22:35 1019 30.09 848 25.04 10 50.1 86 7.8 46
22:40 1019 30.09 848 25.04 9.9 49.7 86 7.7 45.9
22:45 1019 30.09 848 25.04 9.7 49.5 87 7.7 45.9
22:50 1019 30.09 848 25.04 9.6 49.2 88 7.6 45.8
22:55 1019 30.09 848 25.04 9.3 48.7 89 7.6 45.6
23:00 1018 30.06 848 25.04 9.2 48.5 89 7.5 45.5
23:05 1018 30.06 848 25.04 9.3 48.8 87 7.4 45.2
23:10 1019 30.09 848 25.04 9.6 49.3 86 7.5 45.4
23:15 1019 30.09 848 25.04 9.6 49.2 86 7.4 45.4
23:20 1018 30.06 848 25.04 9.7 49.4 86 7.4 45.3
23:25 1018 30.06 847 25.01 9.5 49 87 7.4 45.3
23:30 1018 30.06 847 25.01 9.2 48.6 87 7.2 45
23:35 1018 30.06 847 25.01 9.2 48.5 87 7.1 44.8
23:40 1018 30.06 847 25.01 9.3 48.7 86 7.1 44.7
23:45 1018 30.06 847 25.01 9.4 48.9 86 7.1 44.8
23:50 1018 30.06 847 25.01 9.4 48.9 85 7 44.6
23:55 1018 30.06 847 25.01 9.6 49.2 84 7 44.5
24:00 1018 30.06 847 25.01 9.5 49.2 84 7 44.5